Hobart, Washington
Current Conditions -  °F | °C
As of 2:21 AM on Saturday 22 Nov 2014 (Local Time) from KRNT Reporting Station
Broken Clouds Broken Clouds  
Wind Chill: 48°   Ceiling: 2700
Heat Index: 48°   Visibility: 10mi
Dew Point: 41°   Wind: 0mph
Humidity: 77%   Direction: NA
Pressure: 29.62"   Gusts: NA
Location:  47.42°N, 121.98°W
Report Text: KRNT 221021Z AUTO 00000KT 10SM BKN027 09/05 A2962 RMK AO2 T00890050
Loading
Personal Weather Stations






























Interactive Weather Map New forecast layout! Learn more

10-Day Weather Forecast

Advertisements
Track Severe Weather on mobile